createdAt,value
2023-04-15T00:02:19.838Z,6.85
2023-04-15T00:04:48.678Z,6.94
2023-04-15T00:07:18.040Z,6.88
2023-04-15T00:09:46.130Z,6.81
2023-04-15T00:12:13.725Z,6.80
2023-04-15T00:14:41.242Z,6.78
2023-04-15T00:17:08.681Z,6.74
2023-04-15T00:19:36.961Z,6.78
2023-04-15T00:22:04.415Z,6.78
2023-04-15T00:24:32.753Z,6.73
2023-04-15T00:27:00.267Z,6.80
2023-04-15T00:29:28.480Z,6.84
2023-04-15T00:31:57.063Z,6.84
2023-04-15T00:34:24.730Z,6.87
2023-04-15T00:36:52.648Z,6.97
2023-04-15T00:39:20.770Z,7.02
2023-04-15T00:41:49.245Z,7.04
2023-04-15T00:44:18.866Z,7.08
2023-04-15T00:46:48.697Z,7.09
2023-04-15T00:49:16.264Z,7.02
2023-04-15T00:51:43.828Z,6.84
2023-04-15T00:54:12.252Z,6.69
2023-04-15T00:56:40.082Z,6.64
2023-04-15T00:59:08.492Z,6.64
2023-04-15T01:01:38.369Z,6.66
2023-04-15T01:04:07.144Z,6.64
2023-04-15T01:06:34.929Z,6.64
2023-04-15T01:09:03.526Z,6.70
2023-04-15T01:11:36.011Z,6.66
2023-04-15T01:14:04.331Z,6.61
2023-04-15T01:16:32.114Z,6.57
2023-04-15T01:19:00.288Z,6.56
2023-04-15T01:21:28.152Z,6.49
2023-04-15T01:23:57.110Z,6.37
2023-04-15T01:26:25.232Z,6.29
2023-04-15T01:28:52.661Z,6.30
2023-04-15T01:31:22.136Z,6.40
2023-04-15T01:33:49.663Z,6.58
2023-04-15T01:36:17.157Z,6.78
2023-04-15T01:38:44.629Z,6.84
2023-04-15T01:41:14.384Z,6.99
2023-04-15T01:43:41.901Z,7.09
2023-04-15T01:46:10.263Z,7.15
2023-04-15T01:48:37.716Z,7.20
2023-04-15T01:51:05.730Z,7.35
2023-04-15T01:53:34.306Z,7.35
2023-04-15T01:56:03.487Z,7.33
2023-04-15T01:58:31.481Z,7.20
2023-04-15T02:00:58.944Z,7.07
2023-04-15T02:03:26.708Z,6.95
2023-04-15T02:05:54.208Z,6.90
2023-04-15T02:08:22.447Z,6.83
2023-04-15T02:10:49.889Z,6.74
2023-04-15T02:13:17.431Z,6.64
2023-04-15T02:15:52.596Z,6.57
2023-04-15T02:18:20.627Z,6.56
2023-04-15T02:20:48.771Z,6.43
2023-04-15T02:23:16.902Z,6.39
2023-04-15T02:25:53.115Z,6.36
2023-04-15T02:28:22.032Z,6.32
2023-04-15T02:30:53.738Z,6.30
2023-04-15T02:33:22.141Z,6.29
2023-04-15T02:35:49.674Z,6.36
2023-04-15T02:38:18.035Z,6.37
2023-04-15T02:40:45.606Z,6.42
2023-04-15T02:43:13.710Z,6.44
2023-04-15T02:45:43.572Z,6.47
2023-04-15T02:48:11.619Z,6.43
2023-04-15T02:50:40.703Z,6.43
2023-04-15T02:53:09.980Z,6.44
2023-04-15T02:55:37.570Z,6.43
2023-04-15T02:58:05.373Z,6.49
2023-04-15T03:00:33.077Z,6.56
2023-04-15T03:03:06.594Z,6.61
2023-04-15T03:05:34.482Z,6.58
2023-04-15T03:08:04.836Z,6.71
2023-04-15T03:10:32.758Z,6.63
2023-04-15T03:13:02.354Z,6.57
2023-04-15T03:15:29.839Z,6.54
2023-04-15T03:17:57.444Z,6.53
2023-04-15T03:20:25.028Z,6.49
2023-04-15T03:22:52.852Z,6.46
2023-04-15T03:25:22.516Z,6.44
2023-04-15T03:27:50.033Z,6.40
2023-04-15T03:30:18.666Z,6.34
2023-04-15T03:32:46.779Z,6.36
2023-04-15T03:35:14.302Z,6.39
2023-04-15T03:37:42.028Z,6.46
2023-04-15T03:40:10.102Z,6.57
2023-04-15T03:42:37.547Z,6.58
2023-04-15T03:45:05.895Z,6.66
2023-04-15T03:47:33.735Z,6.71
2023-04-15T03:50:01.203Z,6.73
2023-04-15T03:52:28.624Z,6.80
2023-04-15T03:54:56.069Z,6.83
2023-04-15T03:57:23.956Z,6.92
2023-04-15T03:59:51.419Z,6.98
2023-04-15T04:02:19.151Z,7.02
2023-04-15T04:04:47.098Z,7.11
2023-04-15T04:07:18.371Z,7.19
2023-04-15T04:09:47.340Z,7.28
2023-04-15T04:12:15.096Z,7.35
2023-04-15T04:14:42.682Z,7.46
2023-04-15T04:17:10.590Z,7.57
2023-04-15T04:19:38.201Z,7.67
2023-04-15T04:22:06.518Z,7.73
2023-04-15T04:24:34.157Z,7.78
2023-04-15T04:27:02.164Z,7.83
2023-04-15T04:29:29.656Z,7.88
2023-04-15T04:31:57.183Z,7.95
2023-04-15T04:34:24.677Z,8.09
2023-04-15T04:36:52.167Z,8.20
2023-04-15T04:39:19.619Z,8.31
2023-04-15T04:41:47.299Z,8.28
2023-04-15T04:44:14.809Z,8.38
2023-04-15T04:46:42.242Z,8.50
2023-04-15T04:49:09.928Z,8.69
2023-04-15T04:51:37.540Z,8.85
2023-04-15T04:54:05.043Z,9.04
2023-04-15T04:56:34.292Z,9.36
2023-04-15T04:59:02.170Z,9.63
2023-04-15T05:01:29.874Z,9.90
2023-04-15T05:03:57.630Z,10.11
2023-04-15T05:06:25.234Z,10.35
2023-04-15T05:08:52.871Z,10.31
2023-04-15T05:11:20.421Z,10.21
2023-04-15T05:13:47.897Z,10.18
2023-04-15T05:16:15.969Z,10.13
2023-04-15T05:18:43.476Z,10.17
2023-04-15T05:21:11.510Z,10.33
2023-04-15T05:23:39.460Z,10.45
2023-04-15T05:26:07.017Z,10.52
2023-04-15T05:28:35.090Z,10.66
2023-04-15T05:31:03.238Z,10.80
2023-04-15T05:33:30.851Z,10.77
2023-04-15T05:35:58.364Z,10.80
2023-04-15T05:38:26.187Z,11.28
2023-04-15T05:40:53.745Z,11.28
2023-04-15T05:43:21.593Z,12.37
2023-04-15T05:45:49.096Z,13.30
2023-04-15T05:48:16.644Z,16.37
2023-04-15T05:50:44.308Z,19.59
2023-04-15T05:53:11.850Z,20.84
2023-04-15T05:55:39.385Z,22.34
2023-04-15T05:58:06.967Z,23.49
2023-04-15T06:00:34.645Z,24.09
2023-04-15T06:03:02.449Z,24.37
2023-04-15T06:05:29.996Z,25.18
2023-04-15T06:07:57.708Z,25.03
2023-04-15T06:10:25.200Z,25.45
2023-04-15T06:12:53.626Z,25.69
2023-04-15T06:15:21.169Z,26.24
2023-04-15T06:17:48.678Z,27.23
2023-04-15T06:20:16.420Z,26.82
2023-04-15T06:22:43.990Z,27.75
2023-04-15T06:25:11.722Z,28.10
2023-04-15T06:27:39.370Z,29.23
2023-04-15T06:30:08.002Z,30.04
2023-04-15T06:32:35.751Z,30.14
2023-04-15T06:35:04.047Z,30.41
2023-04-15T06:37:32.938Z,30.29
2023-04-15T06:40:00.602Z,30.32
2023-04-15T06:42:28.155Z,30.41
2023-04-15T06:44:55.742Z,30.59
2023-04-15T06:47:23.239Z,30.45
2023-04-15T06:49:50.976Z,30.92
2023-04-15T06:52:18.444Z,30.99
2023-04-15T06:54:45.964Z,29.91
2023-04-15T06:57:13.451Z,30.14
2023-04-15T06:59:43.697Z,29.91
2023-04-15T07:02:14.108Z,28.74
2023-04-15T07:04:41.773Z,28.61
2023-04-15T07:07:09.487Z,29.87
2023-04-15T07:09:36.891Z,29.15
2023-04-15T07:12:04.412Z,27.23
2023-04-15T07:14:31.953Z,28.70
2023-04-15T07:16:59.447Z,28.87
2023-04-15T07:19:27.186Z,29.60
2023-04-15T07:21:54.650Z,30.32
2023-04-15T07:24:23.258Z,31.26
2023-04-15T07:26:51.211Z,28.59
2023-04-15T07:29:20.042Z,29.28
2023-04-15T07:31:47.488Z,30.49
2023-04-15T07:34:15.036Z,31.49
2023-04-15T07:36:43.219Z,30.15
2023-04-15T07:39:11.036Z,29.77
2023-04-15T07:41:39.034Z,28.91
2023-04-15T07:44:06.478Z,29.00
2023-04-15T07:46:34.203Z,28.73
2023-04-15T07:49:02.045Z,29.40
2023-04-15T07:51:30.746Z,31.06
2023-04-15T07:53:58.708Z,31.26
2023-04-15T07:56:26.580Z,32.08
2023-04-15T07:58:54.084Z,31.23
2023-04-15T08:01:21.774Z,31.48
2023-04-15T08:03:49.414Z,31.68
2023-04-15T08:06:17.260Z,29.18
2023-04-15T08:08:46.751Z,28.56
2023-04-15T08:11:14.722Z,27.57
2023-04-15T08:13:42.261Z,26.56
2023-04-15T08:16:24.743Z,24.55
2023-04-15T08:18:53.902Z,24.87
2023-04-15T08:21:21.435Z,23.91
2023-04-15T08:23:52.274Z,24.05
2023-04-15T08:26:21.625Z,23.58
2023-04-15T08:28:50.062Z,24.77
2023-04-15T08:31:19.101Z,24.25
2023-04-15T08:33:46.824Z,25.25
2023-04-15T08:36:14.964Z,23.73
2023-04-15T08:38:44.517Z,22.65
2023-04-15T08:41:31.783Z,22.51
2023-04-15T08:44:05.240Z,22.34
2023-04-15T08:46:37.052Z,21.55
2023-04-15T08:49:05.683Z,22.29
2023-04-15T08:51:34.070Z,22.55
2023-04-15T08:54:03.475Z,22.34
2023-04-15T08:56:33.619Z,22.51
2023-04-15T08:59:01.871Z,22.25
2023-04-15T09:01:29.804Z,21.69
2023-04-15T09:03:59.845Z,21.74
2023-04-15T09:06:27.384Z,21.30
2023-04-15T09:08:54.995Z,21.99
2023-04-15T09:11:22.795Z,22.79
2023-04-15T09:13:50.819Z,23.84
2023-04-15T09:16:18.880Z,23.34
2023-04-15T09:18:46.503Z,22.67
2023-04-15T09:21:17.663Z,21.35
2023-04-15T09:23:58.390Z,21.35
2023-04-15T09:26:34.086Z,20.96
2023-04-15T09:29:07.935Z,19.80
2023-04-15T09:31:37.141Z,19.94
2023-04-15T09:34:06.213Z,20.10
2023-04-15T09:36:56.849Z,20.31
2023-04-15T09:39:24.499Z,20.45
2023-04-15T09:42:08.481Z,20.33
2023-04-15T09:44:36.490Z,20.90
2023-04-15T09:47:04.024Z,20.29
2023-04-15T09:49:31.764Z,20.46
2023-04-15T09:52:06.075Z,20.38
2023-04-15T09:54:38.843Z,19.39
2023-04-15T09:57:09.948Z,19.14
2023-04-15T09:59:37.749Z,19.19
2023-04-15T10:02:09.451Z,19.43
2023-04-15T10:04:41.628Z,19.88
2023-04-15T10:07:10.085Z,19.55
2023-04-15T10:09:39.591Z,21.47
2023-04-15T10:12:07.603Z,22.48
2023-04-15T10:14:38.615Z,23.08
2023-04-15T10:17:08.298Z,22.76
2023-04-15T10:19:38.033Z,22.20
2023-04-15T10:22:06.885Z,22.52
2023-04-15T10:24:36.474Z,22.69
2023-04-15T10:27:05.809Z,22.41
2023-04-15T10:29:34.098Z,21.75
2023-04-15T10:32:03.072Z,22.51
2023-04-15T10:34:32.795Z,22.37
2023-04-15T10:37:05.822Z,22.68
2023-04-15T10:39:33.208Z,20.45
2023-04-15T10:42:15.411Z,19.84
2023-04-15T10:44:56.429Z,19.63
2023-04-15T10:47:24.114Z,20.01
2023-04-15T10:50:02.726Z,20.55
2023-04-15T10:52:30.232Z,20.68
2023-04-15T10:55:19.511Z,20.32
2023-04-15T10:57:47.094Z,19.97
2023-04-15T11:00:19.762Z,18.99
2023-04-15T11:02:57.389Z,19.05
2023-04-15T11:05:43.372Z,19.36
2023-04-15T11:08:12.826Z,19.84
2023-04-15T11:10:40.346Z,19.74
2023-04-15T11:13:11.010Z,19.94
2023-04-15T11:15:47.061Z,21.38
2023-04-15T11:18:24.033Z,22.88
2023-04-15T11:20:54.953Z,23.82
2023-04-15T11:23:46.791Z,23.50
2023-04-15T11:26:15.458Z,23.43
2023-04-15T11:28:45.835Z,22.45
2023-04-15T11:31:20.137Z,22.68
2023-04-15T11:33:59.519Z,22.16
2023-04-15T11:36:30.383Z,22.00
2023-04-15T11:38:59.824Z,22.16
2023-04-15T11:41:27.407Z,21.76
2023-04-15T11:43:54.894Z,22.20
2023-04-15T11:46:30.780Z,22.60
2023-04-15T11:48:58.337Z,23.23
2023-04-15T11:51:26.114Z,23.47
2023-04-15T11:53:54.845Z,23.33
2023-04-15T11:56:25.674Z,22.95
2023-04-15T11:58:59.371Z,23.29
2023-04-15T12:01:47.266Z,22.60
2023-04-15T12:04:20.887Z,22.58
2023-04-15T12:06:50.733Z,22.62
2023-04-15T12:09:20.252Z,22.81
2023-04-15T12:11:55.088Z,22.75
2023-04-15T12:14:32.059Z,21.72
2023-04-15T12:17:02.840Z,22.29
2023-04-15T12:19:37.958Z,22.18
2023-04-15T12:22:11.309Z,21.96
2023-04-15T12:24:40.016Z,21.93
2023-04-15T12:27:12.718Z,21.66
2023-04-15T12:29:43.212Z,21.61
2023-04-15T12:32:16.878Z,21.42
2023-04-15T12:34:52.449Z,21.71
2023-04-15T12:37:21.043Z,21.56
2023-04-15T12:39:50.177Z,21.59
2023-04-15T12:42:19.006Z,21.89
2023-04-15T12:44:47.358Z,22.52
2023-04-15T12:47:15.414Z,22.57
2023-04-15T12:49:42.849Z,22.96
2023-04-15T12:52:10.529Z,23.12
2023-04-15T12:54:38.159Z,23.60
2023-04-15T12:57:07.417Z,23.77
2023-04-15T12:59:36.126Z,23.66
2023-04-15T13:02:04.359Z,23.29
2023-04-15T13:04:32.163Z,22.09
2023-04-15T13:06:59.748Z,21.12
2023-04-15T13:09:27.179Z,20.52
2023-04-15T13:11:54.896Z,20.66
2023-04-15T13:14:22.393Z,20.91
2023-04-15T13:16:49.880Z,21.18
2023-04-15T13:19:17.335Z,21.44
2023-04-15T13:21:44.796Z,21.69
2023-04-15T13:24:12.271Z,22.00
2023-04-15T13:26:39.757Z,21.45
2023-04-15T13:29:07.353Z,21.18
2023-04-15T13:31:35.012Z,21.21
2023-04-15T13:34:02.729Z,21.96
2023-04-15T13:36:30.684Z,22.50
2023-04-15T13:38:58.479Z,22.65
2023-04-15T13:41:25.957Z,22.41
2023-04-15T13:43:53.346Z,22.27
2023-04-15T13:46:21.095Z,21.14
2023-04-15T13:48:48.606Z,21.21
2023-04-15T13:51:16.224Z,21.38
2023-04-15T13:53:45.993Z,21.15
2023-04-15T13:56:13.525Z,20.83
2023-04-15T13:58:41.811Z,20.66
2023-04-15T14:01:09.360Z,20.49
2023-04-15T14:03:37.383Z,20.28
2023-04-15T14:06:06.422Z,20.10
2023-04-15T14:08:34.169Z,20.00
2023-04-15T14:11:01.684Z,19.98
2023-04-15T14:13:29.447Z,20.00
2023-04-15T14:15:57.629Z,19.85
2023-04-15T14:18:25.605Z,19.80
2023-04-15T14:20:53.231Z,19.81
2023-04-15T14:23:20.848Z,20.10
2023-04-15T14:25:51.907Z,19.97
2023-04-15T14:28:19.493Z,20.73
2023-04-15T14:30:47.115Z,21.20
2023-04-15T14:33:14.635Z,21.07
2023-04-15T14:35:42.213Z,21.03
2023-04-15T14:38:11.291Z,20.52
2023-04-15T14:40:39.232Z,20.00
2023-04-15T14:43:06.849Z,19.87
2023-04-15T14:45:34.989Z,19.76
2023-04-15T14:48:02.512Z,19.59
2023-04-15T14:50:30.112Z,19.55
2023-04-15T14:52:59.235Z,19.29
2023-04-15T14:55:26.857Z,18.98
2023-04-15T14:57:54.430Z,18.61
2023-04-15T15:00:22.060Z,18.50
2023-04-15T15:02:49.748Z,18.39
2023-04-15T15:05:17.562Z,18.37
2023-04-15T15:07:45.759Z,18.26
2023-04-15T15:10:13.444Z,18.12
2023-04-15T15:12:40.981Z,18.01
2023-04-15T15:15:25.037Z,17.89
2023-04-15T15:17:55.131Z,17.72
2023-04-15T15:20:23.750Z,17.63
2023-04-15T15:22:51.665Z,17.64
2023-04-15T15:25:19.625Z,17.47
2023-04-15T15:27:47.547Z,17.40
2023-04-15T15:30:15.682Z,17.27
2023-04-15T15:32:43.706Z,17.22
2023-04-15T15:35:11.528Z,17.00
2023-04-15T15:37:39.091Z,16.78
2023-04-15T15:40:08.227Z,16.52
2023-04-15T15:42:36.042Z,16.21
2023-04-15T15:45:04.865Z,16.07
2023-04-15T15:47:33.863Z,15.89
2023-04-15T15:50:02.705Z,15.86
2023-04-15T15:52:31.841Z,15.76
2023-04-15T15:54:59.405Z,15.79
2023-04-15T15:57:26.862Z,15.85
2023-04-15T16:00:04.961Z,15.83
2023-04-15T16:05:11.383Z,15.44
2023-04-15T16:07:38.906Z,15.31
2023-04-15T16:10:07.433Z,15.14
2023-04-15T16:12:35.193Z,15.04
2023-04-15T16:15:03.856Z,14.96
2023-04-15T16:17:31.434Z,14.90
2023-04-15T16:20:01.149Z,14.97
2023-04-15T16:22:30.416Z,15.10
2023-04-15T16:24:59.690Z,15.14
2023-04-15T16:27:28.086Z,15.08
2023-04-15T16:29:55.768Z,14.93
2023-04-15T16:32:23.349Z,14.84
2023-04-15T16:34:53.160Z,14.81
2023-04-15T16:37:21.639Z,14.80
2023-04-15T16:39:49.169Z,14.69
2023-04-15T16:42:17.254Z,14.52
2023-04-15T16:44:44.727Z,14.33
2023-04-15T16:47:12.234Z,14.24
2023-04-15T16:49:39.687Z,14.18
2023-04-15T16:52:07.706Z,14.18
2023-04-15T16:54:37.688Z,14.12
2023-04-15T16:57:05.143Z,14.00
2023-04-15T16:59:32.640Z,13.82
2023-04-15T17:02:00.624Z,13.71
2023-04-15T17:04:28.787Z,13.57
2023-04-15T17:06:56.460Z,13.46
2023-04-15T17:09:23.971Z,13.36
2023-04-15T17:11:51.496Z,13.26
2023-04-15T17:14:19.039Z,13.15
2023-04-15T17:16:47.576Z,13.04
2023-04-15T17:19:15.027Z,12.92
2023-04-15T17:21:43.450Z,12.80
2023-04-15T17:24:11.429Z,12.65
2023-04-15T17:26:38.922Z,12.56
2023-04-15T17:29:06.859Z,12.41
2023-04-15T17:31:34.721Z,12.27
2023-04-15T17:34:09.653Z,12.19
2023-04-15T17:36:38.663Z,12.06
2023-04-15T17:39:06.662Z,11.99
2023-04-15T17:41:34.468Z,11.89
2023-04-15T17:44:01.994Z,11.83
2023-04-15T17:46:29.980Z,11.75
2023-04-15T17:48:57.494Z,11.69
2023-04-15T17:51:24.958Z,11.64
2023-04-15T17:54:07.530Z,11.58
2023-04-15T17:56:35.494Z,11.51
2023-04-15T17:59:03.565Z,11.41
2023-04-15T18:01:32.295Z,11.34
2023-04-15T18:03:59.948Z,11.27
2023-04-15T18:06:29.140Z,11.30
2023-04-15T18:08:56.622Z,11.35
2023-04-15T18:11:24.168Z,11.31
2023-04-15T18:13:51.749Z,11.31
2023-04-15T18:16:19.372Z,11.30
2023-04-15T18:18:46.975Z,11.31
2023-04-15T18:21:16.698Z,11.33
2023-04-15T18:23:45.350Z,11.33
2023-04-15T18:26:13.506Z,11.31
2023-04-15T18:28:41.211Z,11.31
2023-04-15T18:31:08.790Z,11.30
2023-04-15T18:33:36.344Z,11.31
2023-04-15T18:36:04.085Z,11.28
2023-04-15T18:38:31.890Z,11.27
2023-04-15T18:40:59.452Z,11.28
2023-04-15T18:43:27.020Z,11.28
2023-04-15T18:45:54.998Z,11.26
2023-04-15T18:48:22.850Z,11.19
2023-04-15T18:50:53.979Z,11.10
2023-04-15T18:53:23.065Z,11.09
2023-04-15T18:55:50.684Z,11.07
2023-04-15T18:58:18.138Z,11.02
2023-04-15T19:00:45.677Z,10.96
2023-04-15T19:03:14.753Z,10.89
2023-04-15T19:05:42.591Z,10.80
2023-04-15T19:08:12.366Z,10.69
2023-04-15T19:10:39.921Z,10.62
2023-04-15T19:13:07.433Z,10.55
2023-04-15T19:15:35.491Z,10.48
2023-04-15T19:18:05.339Z,10.42
2023-04-15T19:20:34.857Z,10.35
2023-04-15T19:23:04.773Z,10.31
2023-04-15T19:25:32.659Z,10.30
2023-04-15T19:28:00.264Z,10.28
2023-04-15T19:30:28.711Z,10.20
2023-04-15T19:32:56.224Z,10.16
2023-04-15T19:35:23.664Z,10.17
2023-04-15T19:37:51.214Z,10.11
2023-04-15T19:40:18.718Z,10.07
2023-04-15T19:42:46.116Z,10.07
2023-04-15T19:45:13.811Z,10.07
2023-04-15T19:47:41.469Z,10.07
2023-04-15T19:50:11.896Z,10.04
2023-04-15T19:52:39.357Z,10.04
2023-04-15T19:55:07.212Z,10.01
2023-04-15T19:57:34.763Z,10.03
2023-04-15T20:00:05.963Z,10.04
2023-04-15T20:02:33.624Z,10.04
2023-04-15T20:05:01.425Z,10.06
2023-04-15T20:07:28.995Z,10.06
2023-04-15T20:09:56.644Z,10.06
2023-04-15T20:12:50.206Z,10.10
2023-04-15T20:15:12.754Z,10.10
2023-04-15T20:17:40.468Z,10.11
2023-04-15T20:20:09.121Z,10.14
2023-04-15T20:22:36.616Z,10.16
2023-04-15T20:25:04.978Z,10.18
2023-04-15T20:27:32.432Z,10.18
2023-04-15T20:29:59.885Z,10.18
2023-04-15T20:32:28.933Z,10.18
2023-04-15T20:34:56.556Z,10.21
2023-04-15T20:37:24.028Z,10.24
2023-04-15T20:39:51.589Z,10.27
2023-04-15T20:42:19.827Z,10.25
2023-04-15T20:44:47.358Z,10.25
2023-04-15T20:47:14.808Z,10.28
2023-04-15T20:49:42.296Z,10.30
2023-04-15T20:52:10.164Z,10.27
2023-04-15T20:54:37.617Z,10.25
2023-04-15T20:57:05.034Z,10.22
2023-04-15T20:59:34.827Z,10.21
2023-04-15T21:02:02.685Z,10.22
2023-04-15T21:04:30.714Z,10.22
2023-04-15T21:06:58.264Z,10.21
2023-04-15T21:09:25.923Z,10.10
2023-04-15T21:12:01.063Z,10.01
2023-04-15T21:14:29.556Z,9.94
2023-04-15T21:16:58.949Z,9.91
2023-04-15T21:19:26.640Z,9.87
2023-04-15T21:21:54.216Z,9.86
2023-04-15T21:24:21.719Z,9.78
2023-04-15T21:26:50.377Z,9.73
2023-04-15T21:29:18.118Z,9.62
2023-04-15T21:31:45.902Z,9.52
2023-04-15T21:34:13.547Z,9.38
2023-04-15T21:36:41.068Z,9.24
2023-04-15T21:39:08.663Z,9.15
2023-04-15T21:41:39.176Z,9.08
2023-04-15T21:44:06.755Z,8.99
2023-04-15T21:46:35.581Z,8.97
2023-04-15T21:49:07.112Z,9.03
2023-04-15T21:51:35.176Z,9.08
2023-04-15T21:54:02.907Z,9.07
2023-04-15T21:56:30.372Z,9.10
2023-04-15T21:58:58.190Z,9.08
2023-04-15T22:01:26.511Z,9.05
2023-04-15T22:03:54.282Z,8.96
2023-04-15T22:06:22.050Z,8.88
2023-04-15T22:08:56.764Z,8.84
2023-04-15T22:11:30.469Z,8.84
2023-04-15T22:13:59.271Z,8.83
2023-04-15T22:16:27.360Z,8.79
2023-04-15T22:18:55.796Z,8.77
2023-04-15T22:21:23.860Z,8.74
2023-04-15T22:23:52.255Z,8.74
2023-04-15T22:26:19.718Z,8.74
2023-04-15T22:28:47.250Z,8.74
2023-04-15T22:31:15.453Z,8.80
2023-04-15T22:33:43.001Z,8.80
2023-04-15T22:36:10.718Z,8.80
2023-04-15T22:38:38.199Z,8.79
2023-04-15T22:41:05.707Z,8.79
2023-04-15T22:43:33.126Z,8.80
2023-04-15T22:46:01.424Z,8.84
2023-04-15T22:48:29.005Z,8.84
2023-04-15T22:50:56.518Z,8.90
2023-04-15T22:53:24.576Z,8.91
2023-04-15T22:55:52.307Z,8.94
2023-04-15T22:58:19.814Z,9.00
2023-04-15T23:00:47.425Z,9.01
2023-04-15T23:03:15.089Z,9.01
2023-04-15T23:05:44.980Z,9.03
2023-04-15T23:08:12.392Z,9.08
2023-04-15T23:10:40.245Z,9.10
2023-04-15T23:13:07.805Z,9.03
2023-04-15T23:15:36.028Z,8.91
2023-04-15T23:18:03.649Z,8.81
2023-04-15T23:20:31.114Z,8.70
2023-04-15T23:22:58.725Z,8.60
2023-04-15T23:25:26.207Z,8.52
2023-04-15T23:27:53.859Z,8.46
2023-04-15T23:30:21.733Z,8.39
2023-04-15T23:32:50.286Z,8.34
2023-04-15T23:35:17.908Z,8.26
2023-04-15T23:37:45.521Z,8.25
2023-04-15T23:40:14.103Z,8.28
2023-04-15T23:42:42.108Z,8.34
2023-04-15T23:45:10.502Z,8.25
2023-04-15T23:47:39.133Z,8.15
2023-04-15T23:50:09.045Z,8.08
2023-04-15T23:52:36.963Z,8.05
2023-04-15T23:55:04.945Z,8.16
2023-04-15T23:57:32.376Z,8.28
